Time;durP1;ratioP1;P1;durP2;ratioP2;P2;SDS_P1;SDS_P2;PMS_P1;PMS_P2;Temp;Humidity;BMP_temperature;BMP_pressure;BME280_temperature;BME280_humidity;BME280_pressure;Samples;Min_cycle;Max_cycle;Signal;HPM_P1;HPM_P2
2023/05/03 00:01:07;;;;;;;1999.90;999.90;;;12.50;99.90;;;;;;5054044;28;20033;-80
2023/05/03 00:03:33;;;;;;;1999.90;999.90;;;12.50;99.90;;;;;;5054187;28;20082;-73
2023/05/03 00:06:12;;;;;;;1999.90;999.90;;;12.40;99.90;;;;;;5054460;28;20033;-80
2023/05/03 00:08:38;;;;;;;1999.90;999.90;;;12.40;99.90;;;;;;5054278;28;20021;-73
2023/05/03 00:11:03;;;;;;;1999.90;999.90;;;12.40;99.90;;;;;;5054298;28;20373;-73
2023/05/03 00:13:29;;;;;;;1999.90;999.90;;;12.40;99.90;;;;;;5053953;28;20017;-79
2023/05/03 00:15:55;;;;;;;1999.90;999.90;;;12.30;99.90;;;;;;5053918;28;20036;-80
2023/05/03 00:18:21;;;;;;;1999.90;999.90;;;12.20;99.90;;;;;;5054066;28;20025;-79
2023/05/03 00:20:47;;;;;;;1999.90;999.90;;;12.20;99.90;;;;;;5053786;28;20028;-73
2023/05/03 00:23:12;;;;;;;1999.90;999.90;;;12.10;99.90;;;;;;5053013;28;20412;-73
2023/05/03 00:25:38;;;;;;;1999.90;999.90;;;12.10;99.90;;;;;;5053600;28;20025;-79
2023/05/03 00:28:04;;;;;;;1999.90;999.90;;;12.10;99.90;;;;;;5053810;28;20017;-75
2023/05/03 00:30:30;;;;;;;1999.90;999.90;;;12.00;99.90;;;;;;5053750;28;20028;-79
2023/05/03 00:32:55;;;;;;;1999.90;999.90;;;12.00;99.90;;;;;;5036102;28;20052;-73
2023/05/03 00:35:21;;;;;;;1999.90;999.90;;;12.00;99.90;;;;;;5033784;28;20123;-73
2023/05/03 00:37:47;;;;;;;1999.90;999.90;;;12.00;99.90;;;;;;5033658;28;20507;-80
2023/05/03 00:40:16;;;;;;;1999.90;999.90;;;12.00;99.90;;;;;;5033786;28;20037;-80
2023/05/03 00:42:41;;;;;;;1999.90;999.90;;;12.00;99.90;;;;;;5033623;28;20036;-79
2023/05/03 00:45:07;;;;;;;1999.90;999.90;;;12.00;99.90;;;;;;5044557;28;20029;-73
2023/05/03 00:47:33;;;;;;;1999.90;999.90;;;11.90;99.90;;;;;;5053442;28;20013;-73
2023/05/03 00:49:59;;;;;;;1999.90;999.90;;;11.90;99.90;;;;;;5052867;28;20025;-79
2023/05/03 00:52:25;;;;;;;1999.90;999.90;;;11.90;99.90;;;;;;5053294;28;20045;-79
2023/05/03 00:54:52;;;;;;;1999.90;999.90;;;11.80;99.90;;;;;;5053271;28;20021;-79
2023/05/03 00:57:18;;;;;;;1999.90;999.90;;;11.80;99.90;;;;;;5053590;28;20032;-79
2023/05/03 00:59:45;;;;;;;1999.90;999.90;;;11.80;99.90;;;;;;5053532;28;20096;-73
2023/05/03 01:02:10;;;;;;;1999.90;999.90;;;11.80;99.90;;;;;;5053251;28;20098;-73
2023/05/03 01:04:37;;;;;;;1999.90;999.90;;;11.70;99.90;;;;;;5053134;28;20024;-79
2023/05/03 01:07:08;;;;;;;1999.90;999.90;;;11.70;99.90;;;;;;5053341;28;20387;-80
2023/05/03 01:09:46;;;;;;;1999.90;999.90;;;11.70;99.90;;;;;;5035286;28;20480;-73
2023/05/03 01:12:30;;;;;;;1999.90;999.90;;;11.70;99.90;;;;;;5033342;28;20033;-79
2023/05/03 01:15:12;;;;;;;1999.90;999.90;;;11.70;99.90;;;;;;5033206;28;20061;-73
2023/05/03 01:17:50;;;;;;;1999.90;999.90;;;11.60;99.90;;;;;;5032924;28;20025;-79
2023/05/03 01:20:23;;;;;;;1999.90;999.90;;;11.60;99.90;;;;;;5032829;28;20030;-79
2023/05/03 01:22:58;;;;;;;1999.90;999.90;;;11.60;99.90;;;;;;5032892;28;20033;-73
2023/05/03 01:25:25;;;;;;;1999.90;999.90;;;11.60;99.90;;;;;;5032430;28;20037;-73
2023/05/03 01:27:51;;;;;;;1999.90;999.90;;;11.60;99.90;;;;;;5032933;28;20022;-79
2023/05/03 01:30:17;;;;;;;1999.90;999.90;;;11.50;99.90;;;;;;5032959;28;20049;-79
2023/05/03 01:32:58;;;;;;;1999.90;999.90;;;11.50;99.90;;;;;;5029767;28;20102;-73
2023/05/03 01:35:36;;;;;;;1999.90;999.90;;;11.50;99.90;;;;;;5053312;28;20025;-72
2023/05/03 01:38:03;;;;;;;1999.90;999.90;;;11.50;99.90;;;;;;5052708;28;20067;-73
2023/05/03 01:40:35;;;;;;;1999.90;999.90;;;11.40;99.90;;;;;;5052214;28;20021;-73
2023/05/03 01:43:02;;;;;;;1999.90;999.90;;;11.40;99.90;;;;;;5052557;28;20086;-79
2023/05/03 01:45:27;;;;;;;1999.90;999.90;;;11.40;99.90;;;;;;5052686;28;20021;-79
2023/05/03 01:47:55;;;;;;;1999.90;999.90;;;11.40;99.90;;;;;;5052551;28;20025;-79
2023/05/03 01:50:20;;;;;;;1999.90;999.90;;;11.40;99.90;;;;;;5052549;28;20028;-73
2023/05/03 01:52:46;;;;;;;1999.90;999.90;;;11.30;99.90;;;;;;5052491;28;20415;-79
2023/05/03 01:55:12;;;;;;;1999.90;999.90;;;11.30;99.90;;;;;;5052395;28;20542;-79
2023/05/03 01:57:37;;;;;;;1999.90;999.90;;;11.30;99.90;;;;;;5052924;28;20480;-79
2023/05/03 02:00:04;;;;;;;1999.90;999.90;;;11.30;99.90;;;;;;5052994;28;20045;-72
2023/05/03 02:02:29;;;;;;;1999.90;999.90;;;11.30;99.90;;;;;;5052510;28;20027;-79
2023/05/03 02:04:55;;;;;;;1999.90;999.90;;;11.30;99.90;;;;;;5052201;28;20396;-73
2023/05/03 02:07:20;;;;;;;1999.90;999.90;;;11.30;99.90;;;;;;5052528;28;20033;-73
2023/05/03 02:09:46;;;;;;;1999.90;999.90;;;11.30;99.90;;;;;;5052655;28;20033;-79
2023/05/03 02:12:12;;;;;;;1999.90;999.90;;;11.30;99.90;;;;;;5052800;28;20107;-73
2023/05/03 02:14:37;;;;;;;1999.90;999.90;;;11.30;99.90;;;;;;5052558;28;20033;-79
2023/05/03 02:17:03;;;;;;;1999.90;999.90;;;11.20;99.90;;;;;;5052455;28;20048;-73
2023/05/03 02:19:28;;;;;;;1999.90;999.90;;;11.20;99.90;;;;;;5055197;28;20515;-72
2023/05/03 02:21:55;;;;;;;1999.90;999.90;;;11.20;99.90;;;;;;5056313;28;20028;-79
2023/05/03 02:24:22;;;;;;;1999.90;999.90;;;11.10;99.90;;;;;;5055215;28;20033;-73
2023/05/03 02:26:48;;;;;;;1999.90;999.90;;;11.10;99.90;;;;;;5056611;28;20111;-73
2023/05/03 02:29:13;;;;;;;1999.90;999.90;;;11.10;99.90;;;;;;5056115;28;20021;-73
2023/05/03 02:31:39;;;;;;;1999.90;999.90;;;11.10;99.90;;;;;;5049343;28;20371;-73
2023/05/03 02:34:04;;;;;;;1999.90;999.90;;;11.10;99.90;;;;;;5036042;28;20030;-73
2023/05/03 02:36:30;;;;;;;1999.90;999.90;;;11.10;99.90;;;;;;5035908;28;20480;-73
2023/05/03 02:38:56;;;;;;;1999.90;999.90;;;11.10;99.90;;;;;;5035959;28;20031;-79
2023/05/03 02:41:22;;;;;;;1999.90;999.90;;;11.00;99.90;;;;;;5036141;28;20112;-79
2023/05/03 02:43:47;;;;;;;1999.90;999.90;;;11.10;99.90;;;;;;5035900;28;20033;-73
2023/05/03 02:46:13;;;;;;;1999.90;999.90;;;11.10;99.90;;;;;;5055891;28;20036;-79
2023/05/03 02:48:39;;;;;;;1999.90;999.90;;;11.10;99.90;;;;;;5037557;28;20056;-73
2023/05/03 02:51:05;;;;;;;1999.90;999.90;;;11.10;99.90;;;;;;5055768;28;20053;-79
2023/05/03 02:53:30;;;;;;;1999.90;999.90;;;11.10;99.90;;;;;;5055473;28;20073;-79
2023/05/03 02:55:56;;;;;;;1999.90;999.90;;;11.00;99.90;;;;;;5055469;28;20048;-73
2023/05/03 02:58:22;;;;;;;1999.90;999.90;;;11.10;99.90;;;;;;5055811;28;20078;-73
2023/05/03 03:00:47;;;;;;;1999.90;999.90;;;11.10;99.90;;;;;;5055738;28;20036;-79
2023/05/03 03:03:13;;;;;;;1999.90;999.90;;;11.00;99.90;;;;;;5055478;28;20029;-79
2023/05/03 03:05:38;;;;;;;1999.90;999.90;;;11.00;99.90;;;;;;5055394;28;20040;-73
2023/05/03 03:08:04;;;;;;;1999.90;999.90;;;11.00;99.90;;;;;;5055540;28;20028;-79
2023/05/03 03:10:30;;;;;;;1999.90;999.90;;;11.00;99.90;;;;;;5055421;28;20027;-73
2023/05/03 03:12:56;;;;;;;1999.90;999.90;;;10.90;99.90;;;;;;5055424;28;20503;-73
2023/05/03 03:15:21;;;;;;;1999.90;999.90;;;10.90;99.90;;;;;;5055448;28;20033;-73
2023/05/03 03:17:47;;;;;;;1999.90;999.90;;;10.90;99.90;;;;;;5055413;28;20021;-79
2023/05/03 03:20:12;;;;;;;1999.90;999.90;;;10.90;99.90;;;;;;5055033;28;20025;-73
2023/05/03 03:22:38;;;;;;;1999.90;999.90;;;10.80;99.90;;;;;;5055356;28;20025;-73
2023/05/03 03:25:05;;;;;;;1999.90;999.90;;;10.80;99.90;;;;;;5054661;28;20035;-79
2023/05/03 03:27:31;;;;;;;1999.90;999.90;;;10.80;99.90;;;;;;5054800;28;20044;-79
2023/05/03 03:29:57;;;;;;;1999.90;999.90;;;10.80;99.90;;;;;;5053654;28;20029;-73
2023/05/03 03:32:23;;;;;;;1999.90;999.90;;;10.80;99.90;;;;;;5041852;28;20081;-79
2023/05/03 03:34:48;;;;;;;1999.90;999.90;;;10.80;99.90;;;;;;5034636;28;20421;-73
2023/05/03 03:37:14;;;;;;;1999.90;999.90;;;10.70;99.90;;;;;;5035108;28;20573;-79
2023/05/03 03:39:40;;;;;;;1999.90;999.90;;;10.70;99.90;;;;;;5034850;28;20032;-79
2023/05/03 03:42:06;;;;;;;1999.90;999.90;;;10.70;99.90;;;;;;5035077;28;20029;-79
2023/05/03 03:44:32;;;;;;;1999.90;999.90;;;10.60;99.90;;;;;;5019367;28;20175;-72
2023/05/03 03:46:58;;;;;;;1999.90;999.90;;;10.60;99.90;;;;;;5035050;28;20422;-79
2023/05/03 03:49:23;;;;;;;1999.90;999.90;;;10.60;99.90;;;;;;5050687;28;20028;-72
2023/05/03 03:51:49;;;;;;;1999.90;999.90;;;10.50;99.90;;;;;;5054356;28;20059;-73
2023/05/03 03:54:14;;;;;;;1999.90;999.90;;;10.50;99.90;;;;;;5054521;28;20507;-79
2023/05/03 03:56:40;;;;;;;1999.90;999.90;;;10.40;99.90;;;;;;5054409;28;20032;-78
2023/05/03 03:59:06;;;;;;;1999.90;999.90;;;10.40;99.90;;;;;;5054294;28;20028;-79
2023/05/03 04:01:32;;;;;;;1999.90;999.90;;;10.40;99.90;;;;;;5054470;28;20029;-79
2023/05/03 04:03:58;;;;;;;1999.90;999.90;;;10.40;99.90;;;;;;5054630;28;20380;-73
2023/05/03 04:06:25;;;;;;;1999.90;999.90;;;10.40;99.90;;;;;;5053973;28;20104;-79
2023/05/03 04:08:51;;;;;;;1999.90;999.90;;;10.40;99.90;;;;;;5053938;28;20025;-79
2023/05/03 04:11:17;;;;;;;1999.90;999.90;;;10.40;99.90;;;;;;5054328;28;20029;-80
2023/05/03 04:13:42;;;;;;;1999.90;999.90;;;10.40;99.90;;;;;;5054084;28;20043;-73
2023/05/03 04:16:08;;;;;;;1999.90;999.90;;;10.30;99.90;;;;;;5054291;28;20353;-74
2023/05/03 04:18:34;;;;;;;1999.90;999.90;;;10.30;99.90;;;;;;5053258;28;20583;-73
2023/05/03 04:21:00;;;;;;;1999.90;999.90;;;10.30;99.90;;;;;;5053824;28;20405;-72
2023/05/03 04:23:25;;;;;;;1999.90;999.90;;;10.20;99.90;;;;;;5053990;28;20047;-80
2023/05/03 04:25:51;;;;;;;1999.90;999.90;;;10.20;99.90;;;;;;5053246;28;20028;-79
2023/05/03 04:28:18;;;;;;;1999.90;999.90;;;10.20;99.90;;;;;;5053872;28;20029;-73
2023/05/03 04:30:46;;;;;;;1999.90;999.90;;;10.10;99.90;;;;;;5053405;28;20105;-73
2023/05/03 04:33:12;;;;;;;1999.90;999.90;;;10.10;99.90;;;;;;5034164;28;20032;-73
2023/05/03 04:35:39;;;;;;;1999.90;999.90;;;10.00;99.90;;;;;;5033562;28;20397;-79
2023/05/03 04:38:04;;;;;;;1999.90;999.90;;;10.00;99.90;;;;;;5034067;28;20034;-79
2023/05/03 04:40:30;;;;;;;1999.90;999.90;;;10.10;99.90;;;;;;5033302;28;20385;-73
2023/05/03 04:42:56;;;;;;;1999.90;999.90;;;10.00;99.90;;;;;;5033694;28;20504;-73
2023/05/03 04:45:22;;;;;;;1999.90;999.90;;;10.00;99.90;;;;;;5046197;28;20131;-80
2023/05/03 04:47:48;;;;;;;1999.90;999.90;;;10.00;99.90;;;;;;5053352;28;20387;-73
2023/05/03 04:50:14;;;;;;;1999.90;999.90;;;10.00;99.90;;;;;;5053516;28;20021;-79
2023/05/03 04:52:40;;;;;;;1999.90;999.90;;;10.00;99.90;;;;;;5053334;28;20114;-78
2023/05/03 04:55:06;;;;;;;1999.90;999.90;;;10.10;99.90;;;;;;5053260;28;20035;-73
2023/05/03 04:57:33;;;;;;;1999.90;999.90;;;10.10;99.90;;;;;;5035716;28;20056;-79
2023/05/03 04:59:58;;;;;;;1999.90;999.90;;;10.00;99.90;;;;;;5047128;28;20083;-72
2023/05/03 05:02:25;;;;;;;1999.90;999.90;;;10.00;99.90;;;;;;5051708;28;20056;-72
2023/05/03 05:04:52;;;;;;;1999.90;999.90;;;10.00;99.90;;;;;;5066038;28;20020;-79
2023/05/03 05:07:17;;;;;;;1999.90;999.90;;;10.10;99.90;;;;;;5072994;28;20033;-79
2023/05/03 05:09:43;;;;;;;1999.90;999.90;;;10.10;99.90;;;;;;5052994;28;20028;-73
2023/05/03 05:12:08;;;;;;;1999.90;999.90;;;10.20;99.90;;;;;;5052887;28;20071;-79
2023/05/03 05:14:34;;;;;;;1999.90;999.90;;;10.20;99.90;;;;;;5063338;28;20078;-73
2023/05/03 05:17:00;;;;;;;1999.90;999.90;;;10.30;99.90;;;;;;5073023;28;20051;-79
2023/05/03 05:19:26;;;;;;;1999.90;999.90;;;10.30;99.90;;;;;;5072737;28;20076;-72
2023/05/03 05:21:51;;;;;;;1999.90;999.90;;;10.40;99.90;;;;;;5071047;28;20499;-72
2023/05/03 05:24:17;;;;;;;1999.90;999.90;;;10.40;99.90;;;;;;5052708;28;20024;-72
2023/05/03 05:26:43;;;;;;;1999.90;999.90;;;10.50;99.90;;;;;;5052201;28;20025;-79
2023/05/03 05:29:09;;;;;;;1999.90;999.90;;;10.50;99.90;;;;;;5058236;28;20499;-79
2023/05/03 05:31:35;;;;;;;1999.90;999.90;;;10.60;99.90;;;;;;5060264;28;20021;-72
2023/05/03 05:34:01;;;;;;;1999.90;999.90;;;10.60;99.90;;;;;;5037652;28;20050;-73
2023/05/03 05:36:27;;;;;;;1999.90;999.90;;;10.60;99.90;;;;;;5050530;28;20033;-79
2023/05/03 05:38:52;;;;;;;1999.90;999.90;;;10.60;99.90;;;;;;5045734;28;20559;-81
2023/05/03 05:41:18;;;;;;;1999.90;999.90;;;10.70;99.90;;;;;;5039331;28;20021;-79
2023/05/03 05:43:44;;;;;;;1999.90;999.90;;;10.80;99.90;;;;;;5048663;28;20025;-79
2023/05/03 05:46:10;;;;;;;1999.90;999.90;;;10.80;99.90;;;;;;5052496;28;20028;-78
2023/05/03 05:48:36;;;;;;;1999.90;999.90;;;10.90;99.90;;;;;;5050465;28;20053;-73
2023/05/03 05:51:01;;;;;;;1999.90;999.90;;;10.90;99.90;;;;;;5054461;28;20058;-79
2023/05/03 05:53:27;;;;;;;1999.90;999.90;;;11.00;99.90;;;;;;5053223;28;20045;-78
2023/05/03 05:55:53;;;;;;;1999.90;999.90;;;11.00;99.90;;;;;;5063134;28;20040;-73
2023/05/03 05:58:19;;;;;;;1999.90;999.90;;;11.10;99.90;;;;;;5055777;28;20036;-72
2023/05/03 06:00:47;;;;;;;1999.90;999.90;;;11.20;99.90;;;;;;5052959;28;20035;-79
2023/05/03 06:03:14;;;;;;;1999.90;999.90;;;11.20;99.90;;;;;;5051540;28;20017;-77
2023/05/03 06:05:39;;;;;;;1999.90;999.90;;;11.30;99.90;;;;;;5051999;28;20030;-78
2023/05/03 06:08:05;;;;;;;1999.90;999.90;;;11.40;99.90;;;;;;5052670;28;20396;-73
2023/05/03 06:10:31;;;;;;;1999.90;999.90;;;11.40;99.90;;;;;;5049648;28;20055;-72
2023/05/03 06:12:57;;;;;;;1999.90;999.90;;;11.50;99.90;;;;;;5040679;28;20029;-75
2023/05/03 06:15:22;;;;;;;1999.90;999.90;;;11.60;99.90;;;;;;5028475;28;20044;-77
2023/05/03 06:17:48;;;;;;;1999.90;999.90;;;11.60;99.90;;;;;;5050565;28;20039;-79
2023/05/03 06:20:14;;;;;;;1999.90;999.90;;;11.70;99.90;;;;;;5051802;28;20025;-73
2023/05/03 06:22:40;;;;;;;1999.90;999.90;;;11.80;99.90;;;;;;5051840;28;20506;-78
2023/05/03 06:25:06;;;;;;;1999.90;999.90;;;11.90;99.90;;;;;;5051255;28;20028;-73
2023/05/03 06:27:32;;;;;;;1999.90;999.90;;;11.90;99.90;;;;;;5051534;28;20029;-73
2023/05/03 06:29:57;;;;;;;1999.90;999.90;;;12.00;99.90;;;;;;5047856;28;20025;-76
2023/05/03 06:32:23;;;;;;;1999.90;999.90;;;12.10;99.90;;;;;;5049491;28;20056;-78
2023/05/03 06:34:49;;;;;;;1999.90;999.90;;;12.20;99.90;;;;;;5048057;28;20037;-78
2023/05/03 06:37:15;;;;;;;1999.90;999.90;;;12.20;99.90;;;;;;5047531;28;20099;-79
2023/05/03 06:39:41;;;;;;;1999.90;999.90;;;12.30;99.90;;;;;;5033790;28;20040;-79
2023/05/03 06:42:07;;;;;;;1999.90;999.90;;;12.40;99.90;;;;;;5048593;28;20108;-79
2023/05/03 06:44:32;;;;;;;1999.90;999.90;;;12.50;99.90;;;;;;5054416;28;20020;-79
2023/05/03 06:46:58;;;;;;;1999.90;999.90;;;12.60;99.90;;;;;;5065487;28;20091;-78
2023/05/03 06:49:23;;;;;;;1999.90;999.90;;;12.70;99.90;;;;;;5051458;28;20044;-78
2023/05/03 06:51:49;;;;;;;1999.90;999.90;;;12.80;99.90;;;;;;5046011;28;20057;-73
2023/05/03 06:54:15;;;;;;;1999.90;999.90;;;12.90;99.90;;;;;;5050499;28;20035;-78
2023/05/03 06:56:40;;;;;;;1999.90;999.90;;;13.00;99.90;;;;;;5051608;28;20476;-78
2023/05/03 06:59:07;;;;;;;1999.90;999.90;;;13.10;99.90;;;;;;5062111;28;20044;-78
2023/05/03 07:01:33;;;;;;;1999.90;999.90;;;13.20;99.90;;;;;;5048235;28;20029;-79
2023/05/03 07:03:59;;;;;;;1999.90;999.90;;;13.30;99.90;;;;;;5048216;28;20025;-73
2023/05/03 07:06:24;;;;;;;1999.90;999.90;;;13.40;99.90;;;;;;5047719;28;20028;-73
2023/05/03 07:08:53;;;;;;;1999.90;999.90;;;13.50;99.90;;;;;;5047717;28;20358;-79
2023/05/03 07:11:23;;;;;;;1999.90;999.90;;;13.60;99.90;;;;;;5048442;28;20410;-79
2023/05/03 07:13:50;;;;;;;1999.90;999.90;;;13.80;99.90;;;;;;5040359;28;20039;-76
2023/05/03 07:16:16;;;;;;;1999.90;999.90;;;13.90;99.90;;;;;;5042426;28;20029;-78
2023/05/03 07:18:42;;;;;;;1999.90;999.90;;;14.00;99.90;;;;;;5045523;28;20028;-73
2023/05/03 07:21:08;;;;;;;1999.90;999.90;;;14.20;99.90;;;;;;5049184;28;20048;-77
2023/05/03 07:23:33;;;;;;;1999.90;999.90;;;14.30;99.90;;;;;;5047670;28;20458;-77
2023/05/03 07:25:59;;;;;;;1999.90;999.90;;;14.40;99.90;;;;;;5044895;28;20036;-78
2023/05/03 07:28:25;;;;;;;1999.90;999.90;;;14.60;99.90;;;;;;5046218;28;20396;-73
2023/05/03 07:30:51;;;;;;;1999.90;999.90;;;14.70;99.90;;;;;;5045563;28;20033;-73
2023/05/03 07:33:17;;;;;;;1999.90;999.90;;;14.80;99.90;;;;;;5045258;28;20506;-78
2023/05/03 07:35:45;;;;;;;1999.90;999.90;;;15.00;99.90;;;;;;5029913;28;20045;-78
2023/05/03 07:38:11;;;;;;;1999.90;999.90;;;15.20;99.90;;;;;;5049651;28;20033;-81
2023/05/03 07:40:37;;;;;;;1999.90;999.90;;;15.40;99.90;;;;;;5049966;28;20169;-76
2023/05/03 07:43:03;;;;;;;1999.90;999.90;;;15.60;99.90;;;;;;5044662;28;20232;-73
2023/05/03 07:45:28;;;;;;;1999.90;999.90;;;15.90;99.90;;;;;;5052566;28;20036;-74
2023/05/03 07:47:55;;;;;;;1999.90;999.90;;;16.40;99.90;;;;;;5049567;28;20480;-79
2023/05/03 07:50:21;;;;;;;1999.90;999.90;;;17.60;99.90;;;;;;5050147;28;20025;-79
2023/05/03 07:52:50;;;;;;;1999.90;999.90;;;20.50;99.90;;;;;;5048266;28;20048;-80
2023/05/03 07:55:17;;;;;;;1999.90;999.90;;;22.70;99.90;;;;;;5049012;28;20520;-75
2023/05/03 07:57:42;;;;;;;1999.90;999.90;;;24.40;99.90;;;;;;5050041;28;20484;-75
2023/05/03 08:00:09;;;;;;;1999.90;999.90;;;25.60;99.90;;;;;;5051052;28;20039;-81
2023/05/03 08:02:35;;;;;;;1999.90;999.90;;;25.80;99.60;;;;;;5049628;28;20240;-81
2023/05/03 08:05:03;;;;;;;1999.90;999.90;;;25.80;99.00;;;;;;5049306;28;20075;-75
2023/05/03 08:07:30;;;;;;;1999.90;999.90;;;26.60;97.90;;;;;;5049224;28;20020;-75
2023/05/03 08:09:57;;;;;;;1999.90;999.90;;;26.60;97.10;;;;;;5050683;28;20131;-76
2023/05/03 08:12:24;;;;;;;1999.90;999.90;;;26.90;96.80;;;;;;5048676;28;20033;-76
2023/05/03 08:14:51;;;;;;;1999.90;999.90;;;27.30;96.20;;;;;;5044162;28;20425;-78
2023/05/03 08:17:17;;;;;;;1999.90;999.90;;;27.20;96.20;;;;;;5046778;28;20056;-81
2023/05/03 08:19:43;;;;;;;1999.90;999.90;;;27.30;95.90;;;;;;5051538;28;20035;-76
2023/05/03 08:22:11;;;;;;;1999.90;999.90;;;26.90;95.50;;;;;;5013180;28;20029;-78
2023/05/03 08:24:37;;;;;;;1999.90;999.90;;;27.20;95.80;;;;;;5048879;28;20219;-76
2023/05/03 08:27:02;;;;;;;1999.90;999.90;;;27.50;95.10;;;;;;5054761;28;20033;-81
2023/05/03 08:29:28;;;;;;;1999.90;999.90;;;27.70;94.70;;;;;;5046634;28;20036;-80
2023/05/03 08:31:54;;;;;;;1999.90;999.90;;;27.80;94.00;;;;;;5039254;28;20967;-79
2023/05/03 08:34:19;;;;;;;1999.90;999.90;;;27.90;94.20;;;;;;5029774;28;20028;-76
2023/05/03 08:36:45;;;;;;;1999.90;999.90;;;28.20;94.20;;;;;;5043102;28;20048;-76
2023/05/03 08:39:11;;;;;;;1999.90;999.90;;;28.60;93.60;;;;;;5023644;28;20031;-76
2023/05/03 08:41:38;;;;;;;1999.90;999.90;;;29.00;93.40;;;;;;5043193;28;20033;-76
2023/05/03 08:44:07;;;;;;;1999.90;999.90;;;29.40;92.70;;;;;;5042972;28;20055;-79
2023/05/03 08:46:35;;;;;;;1999.90;999.90;;;29.60;92.20;;;;;;5025349;28;20578;-74
2023/05/03 08:49:02;;;;;;;1999.90;999.90;;;30.20;92.20;;;;;;5046383;28;20093;-77
2023/05/03 08:51:27;;;;;;;1999.90;999.90;;;30.20;91.70;;;;;;5020837;28;20029;-78
2023/05/03 08:53:53;;;;;;;1999.90;999.90;;;30.20;91.30;;;;;;5041854;28;20495;-79
2023/05/03 08:56:32;;;;;;;1999.90;999.90;;;30.30;91.80;;;;;;5028358;28;20044;-79
2023/05/03 08:59:06;;;;;;;1999.90;999.90;;;30.30;90.50;;;;;;5047823;28;20020;-79
2023/05/03 09:01:33;;;;;;;1999.90;999.90;;;30.40;89.80;;;;;;5034757;28;20392;-74
2023/05/03 09:03:58;;;;;;;1999.90;999.90;;;30.50;90.80;;;;;;5050648;28;20028;-74
2023/05/03 09:06:27;;;;;;;1999.90;999.90;;;30.30;90.00;;;;;;5062570;28;20411;-79
2023/05/03 09:08:53;;;;;;;1999.90;999.90;;;30.60;89.10;;;;;;5056975;28;20024;-79
2023/05/03 09:11:21;;;;;;;1999.90;999.90;;;30.50;88.80;;;;;;5048725;28;20500;-79
2023/05/03 09:13:47;;;;;;;1999.90;999.90;;;30.60;88.80;;;;;;5047073;28;20025;-79
2023/05/03 09:16:22;;;;;;;1999.90;999.90;;;30.10;88.90;;;;;;5052441;28;20037;-74
2023/05/03 09:18:58;;;;;;;1999.90;999.90;;;30.50;88.10;;;;;;5051006;28;20033;-80
2023/05/03 09:21:24;;;;;;;1999.90;999.90;;;30.80;88.70;;;;;;5048727;28;20043;-79
2023/05/03 09:23:51;;;;;;;1999.90;999.90;;;31.30;87.90;;;;;;5052039;28;20400;-79
2023/05/03 09:26:31;;;;;;;1999.90;999.90;;;30.60;87.10;;;;;;5036903;28;20024;-74
2023/05/03 09:29:01;;;;;;;1999.90;999.90;;;30.50;88.50;;;;;;5051756;28;20028;-74
2023/05/03 09:31:30;;;;;;;1999.90;999.90;;;30.40;90.00;;;;;;5048196;28;20087;-79
2023/05/03 09:33:57;;;;;;;1999.90;999.90;;;30.80;87.40;;;;;;5051615;28;20033;-80
2023/05/03 09:36:23;;;;;;;1999.90;999.90;;;30.90;87.40;;;;;;5049691;28;20456;-80
2023/05/03 09:38:50;;;;;;;1999.90;999.90;;;31.10;88.80;;;;;;5048322;28;20033;-74
2023/05/03 09:41:26;;;;;;;1999.90;999.90;;;30.40;88.50;;;;;;5051597;28;20273;-74
2023/05/03 09:43:54;;;;;;;1999.90;999.90;;;30.30;87.70;;;;;;5039128;28;20112;-79
2023/05/03 09:46:20;;;;;;;1999.90;999.90;;;30.40;90.00;;;;;;5043055;28;20036;-80
2023/05/03 09:48:45;;;;;;;1999.90;999.90;;;30.80;89.10;;;;;;5053218;28;20115;-79
2023/05/03 09:51:11;;;;;;;1999.90;999.90;;;30.40;87.50;;;;;;5047354;28;20032;-79
2023/05/03 09:53:38;;;;;;;1999.90;999.90;;;31.00;89.50;;;;;;5048170;28;20408;-74
2023/05/03 09:56:11;;;;;;;1999.90;999.90;;;31.50;85.90;;;;;;5045572;28;20122;-74
2023/05/03 09:58:37;;;;;;;1999.90;999.90;;;30.70;83.90;;;;;;5044446;28;20464;-78
2023/05/03 10:01:03;;;;;;;1999.90;999.90;;;29.90;85.80;;;;;;5049869;28;20454;-74
2023/05/03 10:03:49;;;;;;;1999.90;999.90;;;30.60;89.20;;;;;;5050982;28;20036;-74
2023/05/03 10:06:25;;;;;;;1999.90;999.90;;;30.90;84.70;;;;;;5060451;28;20020;-74
2023/05/03 10:09:20;;;;;;;1999.90;999.90;;;31.00;85.00;;;;;;5058611;28;20099;-74
2023/05/03 10:11:51;;;;;;;1999.90;999.90;;;31.20;84.50;;;;;;5051867;28;20499;-79
2023/05/03 10:14:21;;;;;;;1999.90;999.90;;;31.00;84.80;;;;;;5046124;28;20018;-74
2023/05/03 10:16:49;;;;;;;1999.90;999.90;;;30.80;83.90;;;;;;5055645;28;20029;-79
2023/05/03 10:19:22;;;;;;;1999.90;999.90;;;30.60;84.60;;;;;;5052515;28;20554;-74
2023/05/03 10:22:04;;;;;;;1999.90;999.90;;;30.50;83.50;;;;;;5045028;28;20047;-74
2023/05/03 10:24:31;;;;;;;1999.90;999.90;;;30.50;83.80;;;;;;5050441;28;20437;-80
2023/05/03 10:26:58;;;;;;;1999.90;999.90;;;30.40;84.10;;;;;;5047864;28;20025;-80
2023/05/03 10:29:45;;;;;;;1999.90;999.90;;;30.30;85.50;;;;;;5054275;28;20025;-76
2023/05/03 10:32:30;;;;;;;1999.90;999.90;;;29.70;84.90;;;;;;5042781;28;20480;-74
2023/05/03 10:34:57;;;;;;;1999.90;999.90;;;29.50;87.70;;;;;;5045895;28;20055;-79
2023/05/03 10:37:25;;;;;;;1999.90;999.90;;;29.70;87.50;;;;;;5046866;28;20471;-80
2023/05/03 10:39:52;;;;;;;1999.90;999.90;;;29.90;88.90;;;;;;5045778;28;20173;-78
2023/05/03 10:42:22;;;;;;;1999.90;999.90;;;30.00;87.50;;;;;;5049763;28;20399;-79
2023/05/03 10:44:52;;;;;;;1999.90;999.90;;;29.90;86.30;;;;;;5045168;28;20071;-74
2023/05/03 10:47:21;;;;;;;1999.90;999.90;;;29.80;85.20;;;;;;5049384;28;20036;-80
2023/05/03 10:49:47;;;;;;;1999.90;999.90;;;29.50;85.90;;;;;;5056538;28;20042;-77
2023/05/03 10:52:34;;;;;;;1999.90;999.90;;;29.10;85.50;;;;;;5044776;28;20453;-78
2023/05/03 10:55:00;;;;;;;1999.90;999.90;;;29.10;87.80;;;;;;5051749;28;20584;-79
2023/05/03 10:57:31;;;;;;;1999.90;999.90;;;29.60;84.70;;;;;;5052595;28;20082;-74
2023/05/03 10:59:57;;;;;;;1999.90;999.90;;;29.00;86.80;;;;;;5030239;28;20029;-73
2023/05/03 11:02:31;;;;;;;1999.90;999.90;;;28.40;86.50;;;;;;5045817;28;20067;-80
2023/05/03 11:05:02;;;;;;;1999.90;999.90;;;28.00;90.50;;;;;;5029394;28;20029;-81
2023/05/03 11:07:28;;;;;;;1999.90;999.90;;;27.80;90.60;;;;;;5031095;28;20476;-82
2023/05/03 11:09:55;;;;;;;1999.90;999.90;;;27.60;90.20;;;;;;5048311;28;20021;-76
2023/05/03 11:12:20;;;;;;;1999.90;999.90;;;27.50;90.20;;;;;;5040496;28;20437;-76
2023/05/03 11:14:46;;;;;;;1999.90;999.90;;;27.70;90.20;;;;;;5044943;28;20036;-81
2023/05/03 11:17:12;;;;;;;1999.90;999.90;;;28.00;88.40;;;;;;5048846;28;20939;-82
2023/05/03 11:19:38;;;;;;;1999.90;999.90;;;28.70;89.00;;;;;;5047125;28;20021;-81
2023/05/03 11:22:04;;;;;;;1999.90;999.90;;;29.30;87.40;;;;;;5038243;28;20028;-80
2023/05/03 11:24:30;;;;;;;1999.90;999.90;;;28.70;85.00;;;;;;5045547;28;20025;-81
2023/05/03 11:26:56;;;;;;;1999.90;999.90;;;28.80;86.30;;;;;;5044983;28;20078;-81
2023/05/03 11:29:24;;;;;;;1999.90;999.90;;;29.00;88.60;;;;;;5049323;28;20481;-81
2023/05/03 11:31:51;;;;;;;1999.90;999.90;;;29.40;85.60;;;;;;5049006;28;20021;-80
2023/05/03 11:34:17;;;;;;;1999.90;999.90;;;29.90;84.40;;;;;;5049654;28;20021;-73
2023/05/03 11:36:43;;;;;;;1999.90;999.90;;;29.70;86.90;;;;;;5049590;28;20033;-73
2023/05/03 11:39:10;;;;;;;1999.90;999.90;;;29.40;87.80;;;;;;5049524;28;20036;-74
2023/05/03 11:41:36;;;;;;;1999.90;999.90;;;29.30;86.30;;;;;;5050404;28;20566;-79
2023/05/03 11:44:03;;;;;;;1999.90;999.90;;;29.50;85.50;;;;;;5058341;28;20029;-78
2023/05/03 11:46:34;;;;;;;1999.90;999.90;;;28.90;86.10;;;;;;5049951;28;20447;-73
2023/05/03 11:49:01;;;;;;;1999.90;999.90;;;28.40;87.30;;;;;;5049545;28;20130;-73
2023/05/03 11:51:27;;;;;;;1999.90;999.90;;;28.60;87.40;;;;;;5047743;28;20021;-78
2023/05/03 11:53:53;;;;;;;1999.90;999.90;;;28.70;88.70;;;;;;5028600;28;20396;-78
2023/05/03 11:56:19;;;;;;;1999.90;999.90;;;28.20;86.90;;;;;;5048373;28;20032;-74
2023/05/03 11:59:03;;;;;;;1999.90;999.90;;;28.10;90.00;;;;;;5048889;28;20056;-73